createdAt,value
2018-11-27T00:00:11.030Z,0.10
2018-11-27T00:02:39.212Z,0.10
2018-11-27T00:05:07.330Z,0.10
2018-11-27T00:07:34.807Z,0.00
2018-11-27T00:10:02.250Z,0.00
2018-11-27T00:12:29.652Z,0.00
2018-11-27T00:14:59.109Z,-0.10
2018-11-27T00:17:27.071Z,-0.10
2018-11-27T00:19:54.486Z,-0.10
2018-11-27T00:22:21.950Z,-0.10
2018-11-27T00:24:49.387Z,-0.10
2018-11-27T00:27:16.858Z,-0.20
2018-11-27T00:29:44.313Z,-0.30
2018-11-27T00:32:11.714Z,-0.30
2018-11-27T00:34:39.242Z,-0.30
2018-11-27T00:37:06.691Z,-0.30
2018-11-27T00:39:34.277Z,-0.30
2018-11-27T00:42:01.700Z,-0.40
2018-11-27T00:44:29.174Z,-0.40
2018-11-27T00:46:56.636Z,-0.40
2018-11-27T00:49:24.066Z,-0.40
2018-11-27T00:51:51.463Z,-0.40
2018-11-27T00:54:20.007Z,-0.50
2018-11-27T00:56:46.349Z,-0.40
2018-11-27T00:59:13.717Z,-0.50
2018-11-27T01:01:41.090Z,-0.50
2018-11-27T01:04:08.580Z,-0.50
2018-11-27T01:06:36.005Z,-0.60
2018-11-27T01:09:04.463Z,-0.60
2018-11-27T01:11:31.922Z,-0.60
2018-11-27T01:13:59.368Z,-0.60
2018-11-27T01:16:26.793Z,-0.60
2018-11-27T01:18:54.162Z,-0.70
2018-11-27T01:21:21.616Z,-0.70
2018-11-27T01:23:49.078Z,-0.70
2018-11-27T01:26:16.517Z,-0.70
2018-11-27T01:28:43.887Z,-0.70
2018-11-27T01:31:11.248Z,-0.80
2018-11-27T01:33:38.618Z,-0.90
2018-11-27T01:36:05.970Z,-0.80
2018-11-27T01:38:33.414Z,-0.80
2018-11-27T01:41:00.862Z,-0.80
2018-11-27T01:43:28.333Z,-0.80
2018-11-27T01:45:55.775Z,-0.90
2018-11-27T01:48:23.244Z,-0.90
2018-11-27T01:50:50.718Z,-0.90
2018-11-27T01:53:18.089Z,-1.00
2018-11-27T01:55:45.507Z,-1.00
2018-11-27T01:58:13.069Z,-0.90
2018-11-27T02:00:40.840Z,-0.90
2018-11-27T02:03:08.306Z,-0.90
2018-11-27T02:05:35.748Z,-1.00
2018-11-27T02:08:03.222Z,-0.90
2018-11-27T02:10:30.578Z,-1.00
2018-11-27T02:13:01.103Z,-1.00
2018-11-27T02:15:25.934Z,-0.90
2018-11-27T02:17:53.302Z,-1.00
2018-11-27T02:20:20.748Z,-1.00
2018-11-27T02:22:48.174Z,-1.00
2018-11-27T02:25:22.900Z,-0.90
2018-11-27T02:27:50.770Z,-0.90
2018-11-27T02:30:18.887Z,-0.90
2018-11-27T02:32:46.233Z,-0.90
2018-11-27T02:35:14.001Z,-1.00
2018-11-27T02:37:41.392Z,-0.90
2018-11-27T02:40:11.270Z,-0.90
2018-11-27T02:42:38.824Z,-0.90
2018-11-27T02:45:07.105Z,-0.90
2018-11-27T02:47:34.457Z,-1.00
2018-11-27T02:50:01.830Z,-1.00
2018-11-27T02:52:29.161Z,-1.00
2018-11-27T02:54:56.525Z,-1.00
2018-11-27T02:57:23.864Z,-1.00
2018-11-27T02:59:52.313Z,-1.00
2018-11-27T03:02:19.759Z,-1.00
2018-11-27T03:04:47.150Z,-1.10
2018-11-27T03:07:14.593Z,-1.10
2018-11-27T03:09:42.073Z,-1.10
2018-11-27T03:12:09.485Z,-1.20
2018-11-27T03:14:36.854Z,-1.10
2018-11-27T03:17:04.326Z,-1.10
2018-11-27T03:19:31.688Z,-1.10
2018-11-27T03:21:59.041Z,-1.20
2018-11-27T03:24:26.505Z,-1.20
2018-11-27T03:26:53.944Z,-1.20
2018-11-27T03:29:21.321Z,-1.20
2018-11-27T03:31:48.674Z,-1.20
2018-11-27T03:34:16.117Z,-1.20
2018-11-27T03:36:43.573Z,-1.20
2018-11-27T03:39:10.934Z,-1.20
2018-11-27T03:41:38.282Z,-1.20
2018-11-27T03:44:05.761Z,-1.20
2018-11-27T03:46:33.109Z,-1.10
2018-11-27T03:49:00.486Z,-1.10
2018-11-27T03:51:27.821Z,-1.10
2018-11-27T03:53:55.183Z,-1.10
2018-11-27T03:56:22.624Z,-1.20
2018-11-27T03:58:50.065Z,-1.20
2018-11-27T04:01:17.545Z,-1.20
2018-11-27T04:03:44.985Z,-1.20
2018-11-27T04:06:12.453Z,-1.30
2018-11-27T04:08:39.917Z,-1.30
2018-11-27T04:11:07.365Z,-1.30
2018-11-27T04:13:34.704Z,-1.30
2018-11-27T04:16:02.085Z,-1.30
2018-11-27T04:18:29.441Z,-1.30
2018-11-27T04:20:56.886Z,-1.30
2018-11-27T04:23:24.239Z,-1.30
2018-11-27T04:25:51.798Z,-1.30
2018-11-27T04:28:19.245Z,-1.40
2018-11-27T04:30:46.613Z,-1.30
2018-11-27T04:33:13.957Z,-1.30
2018-11-27T04:35:41.336Z,-1.30
2018-11-27T04:38:08.674Z,-1.30
2018-11-27T04:40:36.132Z,-1.40
2018-11-27T04:43:03.488Z,-1.30
2018-11-27T04:45:31.099Z,-1.40
2018-11-27T04:47:58.437Z,-1.40
2018-11-27T04:50:25.822Z,-1.40
2018-11-27T04:52:53.169Z,-1.40
2018-11-27T04:55:20.827Z,-1.40
2018-11-27T04:57:48.685Z,-1.40
2018-11-27T05:00:18.421Z,-1.40
2018-11-27T05:02:45.764Z,-1.40
2018-11-27T05:05:13.131Z,-1.40
2018-11-27T05:07:40.485Z,-1.50
2018-11-27T05:10:09.344Z,-1.50
2018-11-27T05:12:36.709Z,-1.50
2018-11-27T05:15:04.405Z,-1.50
2018-11-27T05:17:31.910Z,-1.50
2018-11-27T05:19:59.253Z,-1.60
2018-11-27T05:22:26.701Z,-1.60
2018-11-27T05:24:54.046Z,-1.60
2018-11-27T05:27:21.449Z,-1.60
2018-11-27T05:29:48.796Z,-1.50
2018-11-27T05:32:16.164Z,-1.50
2018-11-27T05:34:43.517Z,-1.60
2018-11-27T05:37:10.889Z,-1.60
2018-11-27T05:39:38.282Z,-1.60
2018-11-27T05:42:05.685Z,-1.50
2018-11-27T05:44:33.033Z,-1.60
2018-11-27T05:47:00.476Z,-1.60
2018-11-27T05:49:28.337Z,-1.60
2018-11-27T05:51:55.793Z,-1.60
2018-11-27T05:54:23.138Z,-1.60
2018-11-27T05:56:50.533Z,-1.60
2018-11-27T05:59:17.961Z,-1.60
2018-11-27T06:01:46.188Z,-1.60
2018-11-27T06:18:32.267Z,-1.60
2018-11-27T06:29:32.766Z,-1.50
2018-11-27T06:32:00.831Z,-1.40
2018-11-27T06:46:00.721Z,-1.00
2018-11-27T06:48:28.372Z,-0.90
2018-11-27T07:02:24.165Z,-0.70
2018-11-27T07:07:00.318Z,-0.60
2018-11-27T07:12:16.562Z,-0.50
2018-11-27T07:14:45.722Z,-0.40
2018-11-27T07:17:29.182Z,-0.40
2018-11-27T07:19:58.717Z,-0.40
2018-11-27T07:22:26.953Z,-0.30
2018-11-27T07:27:40.001Z,-0.30
2018-11-27T07:30:09.441Z,-0.30
2018-11-27T07:32:43.420Z,-0.30
2018-11-27T07:35:21.737Z,-0.20
2018-11-27T07:40:37.070Z,-0.20
2018-11-27T07:43:08.000Z,-0.20
2018-11-27T07:48:29.162Z,-0.20
2018-11-27T08:06:19.652Z,-0.10
2018-11-27T08:08:50.334Z,0.10
2018-11-27T08:11:19.707Z,0.10
2018-11-27T08:16:33.092Z,0.20
2018-11-27T08:19:50.468Z,0.30
2018-11-27T08:22:18.657Z,0.40
2018-11-27T08:24:47.355Z,0.50
2018-11-27T08:29:55.155Z,0.70
2018-11-27T08:32:55.998Z,0.80
2018-11-27T08:35:24.786Z,0.90
2018-11-27T08:37:52.723Z,1.00
2018-11-27T08:40:20.896Z,1.00
2018-11-27T08:45:25.502Z,1.20
2018-11-27T08:47:53.512Z,1.30
2018-11-27T08:50:24.680Z,1.40
2018-11-27T08:52:53.026Z,1.50
2018-11-27T08:55:22.332Z,1.50
2018-11-27T08:57:49.812Z,1.60
2018-11-27T09:03:46.383Z,1.80
2018-11-27T09:06:09.420Z,1.90
2018-11-27T09:22:36.405Z,2.00
2018-11-27T09:25:04.993Z,2.30
2018-11-27T09:34:07.034Z,2.50
2018-11-27T09:36:34.654Z,2.50
2018-11-27T10:07:49.008Z,2.90
2018-11-27T10:10:17.897Z,2.90
2018-11-27T10:15:31.477Z,2.80
2018-11-27T10:18:02.117Z,2.90
2018-11-27T10:22:52.823Z,2.90
2018-11-27T10:30:52.071Z,3.10
2018-11-27T10:46:51.736Z,3.20
2018-11-27T10:51:54.786Z,3.40
2018-11-27T10:54:30.829Z,3.30
2018-11-27T10:56:58.330Z,3.30
2018-11-27T11:05:03.662Z,3.20
2018-11-27T11:11:59.134Z,3.20
2018-11-27T11:14:22.026Z,3.20
2018-11-27T11:16:49.559Z,3.30
2018-11-27T11:19:18.479Z,3.40
2018-11-27T11:21:44.840Z,3.40
2018-11-27T11:24:12.308Z,3.40
2018-11-27T11:26:39.703Z,3.40
2018-11-27T11:29:07.109Z,3.40
2018-11-27T11:31:34.731Z,3.50
2018-11-27T11:34:02.116Z,3.40
2018-11-27T11:36:33.992Z,3.20
2018-11-27T11:39:01.943Z,3.20
2018-11-27T11:41:31.439Z,3.10
2018-11-27T11:43:57.321Z,3.10
2018-11-27T11:46:25.113Z,3.00
2018-11-27T11:51:42.257Z,3.00
2018-11-27T11:54:09.672Z,3.00
2018-11-27T11:56:37.213Z,3.10
2018-11-27T12:01:59.566Z,3.10
2018-11-27T12:04:28.010Z,3.00
2018-11-27T12:06:55.601Z,2.90
2018-11-27T12:09:26.301Z,2.80
2018-11-27T12:11:53.929Z,2.80
2018-11-27T12:14:21.343Z,2.70
2018-11-27T12:16:48.902Z,2.60
2018-11-27T12:19:16.560Z,2.60
2018-11-27T12:21:56.557Z,2.60
2018-11-27T12:24:24.238Z,2.50
2018-11-27T12:26:59.100Z,2.50
2018-11-27T12:29:37.273Z,2.40
2018-11-27T12:32:05.002Z,2.50
2018-11-27T12:34:33.196Z,2.60
2018-11-27T12:37:00.949Z,2.70
2018-11-27T12:39:28.446Z,2.80
2018-11-27T12:42:02.797Z,2.80
2018-11-27T12:44:30.358Z,2.80
2018-11-27T12:46:58.144Z,2.80
2018-11-27T12:49:26.118Z,2.80
2018-11-27T12:51:53.762Z,2.80
2018-11-27T12:54:21.607Z,2.80
2018-11-27T12:56:49.207Z,2.80
2018-11-27T12:59:16.984Z,2.80
2018-11-27T13:01:44.860Z,2.90
2018-11-27T13:04:12.709Z,2.80
2018-11-27T13:06:40.780Z,2.80
2018-11-27T13:09:11.124Z,2.80
2018-11-27T13:11:39.856Z,2.80
2018-11-27T13:18:45.303Z,2.60
2018-11-27T13:21:28.120Z,2.60
2018-11-27T13:23:55.629Z,2.60
2018-11-27T13:26:30.083Z,2.60
2018-11-27T13:28:58.169Z,2.60
2018-11-27T13:31:26.932Z,2.70
2018-11-27T13:33:56.950Z,2.70
2018-11-27T13:36:26.011Z,2.70
2018-11-27T13:38:53.362Z,2.80
2018-11-27T13:41:21.268Z,2.80
2018-11-27T13:43:50.883Z,2.80
2018-11-27T13:46:18.950Z,2.80
2018-11-27T13:48:46.375Z,2.80
2018-11-27T13:51:16.015Z,2.80
2018-11-27T13:53:44.184Z,2.80
2018-11-27T13:56:11.850Z,2.80
2018-11-27T13:58:39.505Z,2.80
2018-11-27T14:01:08.000Z,2.70
2018-11-27T14:03:35.395Z,2.70
2018-11-27T14:06:02.761Z,2.70
2018-11-27T14:08:30.221Z,2.70
2018-11-27T14:10:57.706Z,2.60
2018-11-27T14:13:25.290Z,2.50
2018-11-27T14:15:53.440Z,2.50
2018-11-27T14:18:20.978Z,2.50
2018-11-27T14:20:48.889Z,2.50
2018-11-27T14:23:16.498Z,2.50
2018-11-27T14:25:44.990Z,2.60
2018-11-27T14:28:12.771Z,2.60
2018-11-27T14:30:40.538Z,2.60
2018-11-27T14:33:08.400Z,2.50
2018-11-27T14:35:35.978Z,2.50
2018-11-27T14:38:03.732Z,2.50
2018-11-27T14:40:31.488Z,2.50
2018-11-27T14:42:59.298Z,2.50
2018-11-27T14:45:27.422Z,2.50
2018-11-27T14:47:55.903Z,2.40
2018-11-27T14:50:23.958Z,2.40
2018-11-27T14:55:27.494Z,2.40
2018-11-27T14:58:03.881Z,2.30
2018-11-27T15:00:31.721Z,2.30
2018-11-27T15:13:12.172Z,2.30
2018-11-27T15:19:15.380Z,2.30
2018-11-27T15:21:43.022Z,2.30
2018-11-27T15:24:10.480Z,2.30
2018-11-27T15:26:38.594Z,2.30
2018-11-27T15:29:06.414Z,2.30
2018-11-27T15:31:34.309Z,2.30
2018-11-27T15:34:01.905Z,2.30
2018-11-27T15:36:29.528Z,2.30
2018-11-27T15:38:57.395Z,2.30
2018-11-27T15:41:28.275Z,2.40
2018-11-27T15:44:02.060Z,2.40
2018-11-27T15:46:30.901Z,2.40
2018-11-27T15:48:58.534Z,2.40
2018-11-27T15:51:28.043Z,2.40
2018-11-27T15:53:57.365Z,2.40
2018-11-27T15:56:25.440Z,2.40
2018-11-27T15:58:57.734Z,2.40
2018-11-27T16:04:36.352Z,2.40
2018-11-27T16:07:11.428Z,2.40
2018-11-27T16:15:16.605Z,2.40
2018-11-27T16:23:37.625Z,2.40
2018-11-27T16:26:05.202Z,2.50
2018-11-27T16:45:02.796Z,2.40
2018-11-27T16:47:37.989Z,2.40
2018-11-27T16:50:12.307Z,2.40
2018-11-27T16:52:39.653Z,2.40
2018-11-27T16:55:07.804Z,2.40
2018-11-27T16:57:35.145Z,2.40
2018-11-27T17:00:02.927Z,2.40
2018-11-27T17:02:30.322Z,2.40
2018-11-27T17:04:57.681Z,2.40
2018-11-27T17:07:25.054Z,2.50
2018-11-27T17:09:52.396Z,2.50
2018-11-27T17:12:19.795Z,2.50
2018-11-27T17:14:47.189Z,2.50
2018-11-27T17:17:15.002Z,2.50
2018-11-27T17:19:42.890Z,2.50
2018-11-27T17:22:10.336Z,2.50
2018-11-27T17:24:38.221Z,2.50
2018-11-27T17:27:05.985Z,2.50
2018-11-27T17:29:33.366Z,2.40
2018-11-27T17:32:00.734Z,2.40
2018-11-27T17:34:28.077Z,2.40
2018-11-27T17:36:55.435Z,2.40
2018-11-27T17:39:22.772Z,2.40
2018-11-27T17:41:50.126Z,2.40
2018-11-27T17:44:17.472Z,2.40
2018-11-27T17:46:44.885Z,2.40
2018-11-27T17:49:12.263Z,2.50
2018-11-27T17:51:39.635Z,2.50
2018-11-27T17:54:06.985Z,2.50
2018-11-27T17:56:34.412Z,2.40
2018-11-27T17:59:01.771Z,2.50
2018-11-27T18:01:29.131Z,2.40
2018-11-27T18:03:56.468Z,2.40
2018-11-27T18:06:24.045Z,2.40
2018-11-27T18:08:51.425Z,2.40
2018-11-27T18:11:20.809Z,2.40
2018-11-27T18:13:48.217Z,2.40
2018-11-27T18:16:15.620Z,2.40
2018-11-27T18:18:57.818Z,2.40
2018-11-27T18:21:25.588Z,2.40
2018-11-27T18:23:53.732Z,2.40
2018-11-27T18:26:21.084Z,2.30
2018-11-27T18:28:48.424Z,2.30
2018-11-27T18:31:15.898Z,2.40
2018-11-27T18:33:43.294Z,2.40
2018-11-27T18:36:10.781Z,2.40
2018-11-27T18:38:38.157Z,2.40
2018-11-27T18:41:06.109Z,2.40
2018-11-27T18:43:33.620Z,2.40
2018-11-27T18:46:01.064Z,2.40
2018-11-27T18:48:28.529Z,2.40
2018-11-27T18:50:56.377Z,2.40
2018-11-27T18:53:23.757Z,2.40
2018-11-27T18:55:51.132Z,2.40
2018-11-27T18:58:18.590Z,2.40
2018-11-27T19:00:46.074Z,2.40
2018-11-27T19:03:13.504Z,2.40
2018-11-27T19:05:40.984Z,2.40
2018-11-27T19:08:08.412Z,2.40
2018-11-27T19:10:35.850Z,2.40
2018-11-27T19:13:03.484Z,2.40
2018-11-27T19:15:36.548Z,2.40
2018-11-27T19:18:07.309Z,2.40
2018-11-27T19:20:34.775Z,2.40
2018-11-27T19:23:02.108Z,2.40
2018-11-27T19:25:30.264Z,2.40
2018-11-27T19:27:57.688Z,2.40
2018-11-27T19:30:25.177Z,2.40
2018-11-27T19:32:52.596Z,2.40
2018-11-27T19:35:25.138Z,2.40
2018-11-27T19:37:48.437Z,2.30
2018-11-27T19:40:17.396Z,2.30
2018-11-27T19:42:44.792Z,2.30
2018-11-27T19:45:13.123Z,2.30
2018-11-27T19:47:40.606Z,2.40
2018-11-27T19:50:08.951Z,2.40
2018-11-27T19:52:37.424Z,2.40
2018-11-27T19:55:05.823Z,2.40
2018-11-27T19:57:33.260Z,2.40
2018-11-27T20:00:01.002Z,2.40
2018-11-27T20:02:28.858Z,2.40
2018-11-27T20:04:56.409Z,2.40
2018-11-27T20:07:23.961Z,2.40
2018-11-27T20:09:51.446Z,2.40
2018-11-27T20:12:18.901Z,2.40
2018-11-27T20:14:46.469Z,2.40
2018-11-27T20:17:13.809Z,2.40
2018-11-27T20:19:41.304Z,2.40
2018-11-27T20:22:08.778Z,2.40
2018-11-27T20:24:36.223Z,2.40
2018-11-27T20:27:03.690Z,2.40
2018-11-27T20:29:31.127Z,2.40
2018-11-27T20:31:58.533Z,2.40
2018-11-27T20:34:25.965Z,2.40
2018-11-27T20:36:53.324Z,2.40
2018-11-27T20:39:20.809Z,2.40
2018-11-27T20:41:48.172Z,2.40
2018-11-27T20:44:15.677Z,2.40
2018-11-27T20:46:43.112Z,2.40
2018-11-27T20:49:10.490Z,2.40
2018-11-27T20:51:37.876Z,2.40
2018-11-27T20:54:05.272Z,2.40
2018-11-27T20:56:32.709Z,2.40
2018-11-27T20:59:02.883Z,2.40
2018-11-27T21:01:30.281Z,2.40
2018-11-27T21:03:58.286Z,2.40
2018-11-27T21:06:25.717Z,2.40
2018-11-27T21:08:53.229Z,2.40
2018-11-27T21:11:20.666Z,2.40
2018-11-27T21:13:48.110Z,2.40
2018-11-27T21:16:15.536Z,2.40
2018-11-27T21:18:43.035Z,2.40
2018-11-27T21:21:10.875Z,2.40
2018-11-27T21:23:38.480Z,2.50
2018-11-27T21:26:06.265Z,2.50
2018-11-27T21:28:33.808Z,2.50
2018-11-27T21:31:01.966Z,2.50
2018-11-27T21:33:29.431Z,2.50
2018-11-27T21:35:57.223Z,2.50
2018-11-27T21:38:24.678Z,2.50
2018-11-27T21:40:52.092Z,2.50
2018-11-27T21:43:19.537Z,2.50
2018-11-27T21:45:46.977Z,2.50
2018-11-27T21:48:14.361Z,2.50
2018-11-27T21:50:42.772Z,2.60
2018-11-27T21:53:10.201Z,2.60
2018-11-27T21:55:38.169Z,2.60
2018-11-27T21:58:05.925Z,2.60
2018-11-27T22:00:33.368Z,2.70
2018-11-27T22:03:00.721Z,2.70
2018-11-27T22:05:28.119Z,2.70
2018-11-27T22:07:55.461Z,2.70
2018-11-27T22:10:23.753Z,2.80
2018-11-27T22:12:53.777Z,2.80
2018-11-27T22:15:26.062Z,2.80
2018-11-27T22:17:53.400Z,2.80
2018-11-27T22:20:21.556Z,2.80
2018-11-27T22:22:48.117Z,2.80
2018-11-27T22:25:15.545Z,2.80
2018-11-27T22:27:43.184Z,2.80
2018-11-27T22:30:12.098Z,2.80
2018-11-27T22:32:39.892Z,2.80
2018-11-27T22:35:07.475Z,2.80
2018-11-27T22:37:34.853Z,2.80
2018-11-27T22:40:02.229Z,2.80
2018-11-27T22:42:29.673Z,2.80
2018-11-27T22:44:57.133Z,2.80
2018-11-27T22:47:24.477Z,2.80
2018-11-27T22:49:51.853Z,2.80
2018-11-27T22:52:19.425Z,2.80
2018-11-27T22:54:46.782Z,2.80
2018-11-27T22:57:14.237Z,2.80
2018-11-27T22:59:41.676Z,2.80
2018-11-27T23:02:09.120Z,2.80
2018-11-27T23:04:36.484Z,2.90
2018-11-27T23:07:03.941Z,2.90
2018-11-27T23:09:31.297Z,2.90
2018-11-27T23:11:58.719Z,2.90
2018-11-27T23:14:26.133Z,2.90
2018-11-27T23:16:53.560Z,2.90
2018-11-27T23:19:20.921Z,2.80
2018-11-27T23:21:48.299Z,2.80
2018-11-27T23:24:15.760Z,2.90
2018-11-27T23:26:43.217Z,2.90
2018-11-27T23:29:11.636Z,2.90
2018-11-27T23:31:39.033Z,2.80
2018-11-27T23:34:06.404Z,2.80
2018-11-27T23:36:33.768Z,2.80
2018-11-27T23:39:01.111Z,2.80
2018-11-27T23:41:28.561Z,2.80
2018-11-27T23:43:55.909Z,2.90
2018-11-27T23:46:23.320Z,2.90
2018-11-27T23:48:50.785Z,2.90
2018-11-27T23:51:18.188Z,2.90
2018-11-27T23:53:45.628Z,2.90
2018-11-27T23:56:12.989Z,2.90
2018-11-27T23:58:40.382Z,2.90
